Airfield :
LOGIN :

Register | Disclaimer

   EN    FR    IT 

 










Legend :    VFR   Marginal VFR   IFR   Intensive IFR   Very Intensive IFR
Visi :
Ceiling :
>= 8 km
>= 3000ft
5 to 8 km
1000 to 3000 ft
1500m to 5 km
500 to 1000 ft
800 to 1500m
200 to 500 ft
< 800m
< 200 ft
Symbols :   Thunderstorms  Fog  Heavy snow  Heavy precipitations  Wind > 20 kt
SIGMETs :     Misc.  Thunderstorms  Icing  Turbulence  Mountain Waves  Volcanic Ashes







- Airport Elevation : 913 ft
- Download approach charts


LFSX - Luxeuil

CURRENT METAR :
  • 241030Z AUTO 26004KT 230V320 9999 FEW022/// SCT045/// 19/11 Q1020 NOSIG

EXPIRED METARs :
  • 241000Z AUTO 25004KT 180V350 9999 FEW016/// 18/13 Q1020 NOSIG
  • 240930Z AUTO VRB02KT 9999 BKN014/// BKN022/// 17/13 Q1020 BECMG SCT025
  • 240900Z AUTO VRB02KT 9999 BKN012/// 16/13 Q1021 BECMG SCT025
  • 240830Z AUTO 00000KT 9999 OVC010/// 16/14 Q1020 BECMG SCT025
  • 240800Z AUTO 00000KT 9999 OVC007/// 14/13 Q1020 BECMG FEW030

TAF TAF LFSX
Valid from the 24 at 09:00 until the 25 at 09:00 UTC


240800Z 2409/2509 25008KT 9999 SCT025
No reported NOTAMs for that airfield.



MET'MAP, your aeronautical weather chart ! - Copyright ORBIFLY December 2007 - Disclaimer

ORBIFLY MET'MAP TEAM :

Programming & Development : Alexandra Zaïnal
Concept & Development : Baudouin d'Aumeries
Co-Development & Prog : Marc-Olivier Méhu
Technical & hardware support : Manuel Goepfert

Contact : metmap@orbifly.com




SOURCES & CREDITS :

   NOAA